Terminal Aerodrome Forecast
Issued by NWS

Home | Current Version | Previous Version | Text Only | Print | Product List | Glossary On
Versions: 1 2 3 4 5 6 7 8 9 10 11 12 13 14 15
456
FTUS45 KRIW 271248 AAA
TAFBPI
TAF AMD
KBPI 271248Z 2713/2812 28011KT P6SM VCSH SCT030 BKN060
      TEMPO 2713/2715 2SM -SN SCT015 BKN050
     FM271600 31022G30KT P6SM VCSH SCT025 OVC040
     FM280100 33014KT P6SM VCSH BKN035
     FM280800 36009KT 4SM -SHSN BKN025=

USA.gov is the U.S. government's official web portal to all federal, state and local government web resources and services.